The Internet Pinball Serial Number Database or IPSND collects serial numbers of pinball machines and publishes a database of these on the Internet. Our goal is to make available a registration of all pinball machines in existence and allow tools for slicing, dicing and visualization of the data.

Games: 6,555  Serials: 62,119  Visitors: 60,565,893  Members: 5,092  Photos: 37,920  Lat/Lng: 32,139  Masks: 62,119(947.66%)  Traits: 557  Nudges: 192,600  Backglasses: 1,865
  Most Serials: Twilight Zone(1,217)  Most Submissions: Dennis Braun(5,716)  Most Points: Dennis Braun(42,507)  Highest Quality: EM-fan(9.45)  Most Nudges: King of Pinball(25,173)
Submitter: Fun House
Member Since: Thursday, September 22, 2016
Submissions: 3,780 (2nd)
SerialBot: 31,276 Points Total (2nd), 7.29 Average Score (4,195th)
Nudges: 3,733(15th)
DateGameSerialNumberGame PartSerialBotDetails
 Item 1 to 100 of 3780
Page:of 38 Page size:
8/18/2022 The Addams Family Special Collectors Edition 52038406872 Complete Game 52038406872
7/30/2022 Black Rose 20013I967244 Complete Game 20013I967244
7/30/2022 Whirlwind 574I337298 Other Parts 574I337298
7/30/2022 Black Knight 2000 563I240079 Complete Game 563I240079
7/30/2022 Bad Cats 575I315021 Complete Game 575I315021
7/29/2022 Scared Stiff 51448101382 Other Parts 51448101382
7/29/2022 Scared Stiff 50248101407 Complete Game 50248101407
7/29/2022 Red & Ted's Road Show 52224101523 Other Parts 52224101523
7/29/2022 White Water 52218022582 Other Parts 52218022582
7/29/2022 The Getaway: High Speed II 50004I095610 Other Parts 50004I095610
7/29/2022 White Water 52218015752 Complete Game 52218015752
7/29/2022 Indiana Jones: The Pinball Adventure 51417294831 Other Parts 51417294831
7/29/2022 Theatre of Magic 51439103523 Other Parts 51439103523
7/29/2022 Indiana Jones: The Pinball Adventure 51417238931 Other Parts 51417238931
7/29/2022 Twilight Zone 51420060692 Complete Game 51420060692
7/29/2022 Medieval Madness 50259200229 Complete Game 50259200229
7/29/2022 Safe Cracker 90203100037 Complete Game 90203100037
7/29/2022 The Addams Family 20017I599547 Other Parts 20017I599547
7/29/2022 The Addams Family 20017I595417 Complete Game 20017I595417
7/29/2022 The Addams Family 20017I598443 Complete Game 20017I598443
7/29/2022 Gilligan's Island 20003760730 Other Parts 20003760730
7/29/2022 The Addams Family 20017I596710 Complete Game 20017I596710
7/29/2022 The Getaway: High Speed II 50004I857292 Other Parts 50004I857292
7/29/2022 The Getaway: High Speed II 50004I856751 Other Parts 50004I856751
7/29/2022 The Addams Family 20017I599351 Complete Game 20017I599351
7/29/2022 The Shadow 52832101245 Other Parts 52832101245
7/29/2022 The Addams Family 20017I044231 Complete Game 20017I044231
7/29/2022 Terminator 2: Judgment Day 50013I775996 Other Parts 50013I775996
7/29/2022 Indiana Jones: The Pinball Adventure 53317265251 Other Parts 53317265251
7/29/2022 The Addams Family 20017I040329 Complete Game 20017I040329
7/29/2022 20013I965357 Other Parts 20013I965357
7/29/2022 Corvette 51036102748 Other Parts 51036102748
7/29/2022 The Addams Family 20017I598904 Complete Game 20017I598904
7/29/2022 Revenge From Mars 59570105384 Other Parts 59570105384
7/29/2022 Revenge From Mars 50270105314 Complete Game 50270105314
7/29/2022 Revenge From Mars 59570100598 Other Parts 59570100598
7/29/2022 Revenge From Mars 52170101722 Complete Game 52170101722
7/29/2022 Revenge From Mars 50270100292 Complete Game 50270100292
4/3/2022 Star Wars The Mandalorian (Limited Edition) E318692 Complete Game E318692
4/3/2022 Godzilla ゴジラ (Pro) 331408C Complete Game 331408C
4/3/2022 The Machine: Bride of Pin·bot 50002662056 Other Parts 50002662056
3/30/2022 The Addams Family 20017I046139 Complete Game 20017I046139
3/6/2022 Revenge From Mars 59570111577 Complete Game 59570111577
2/27/2022 Dr. Dude And His Excellent Ray 2016I497215 Complete Game 2016I497215
2/27/2022 White Water 52018933270 Other Parts 52018933270
2/27/2022 Demolition Man 52528467882 Other Parts 52528467882
2/27/2022 Demolition Man 52528457552 Other Parts 52528457552
2/27/2022 Demolition Man 52028380072 Complete Game 52028380072
2/27/2022 Fish Tales 50005I197027 Other Parts 50005I197027
2/27/2022 Demolition Man 52528576481 Complete Game 52528576481
2/27/2022 White Water 52518852770 Other Parts 52518852770
2/27/2022 Bram Stoker's Dracula 52801955620 Other Parts 52801955620
2/27/2022 The Getaway: High Speed II 50004I855158 Other Parts 50004I855158
2/27/2022 Creature from the Black Lagoon 21418970500 Complete Game 21418970500
2/27/2022 Johnny Mnemonic 52242101325 Other Parts 52242101325
2/27/2022 Corvette 50736100109 Complete Game 50736100109
2/27/2022 Cirqus Voltaire 50262400571 Complete Game 50262400571
2/27/2022 The Addams Family 20017I046822 Complete Game 20017I046822
1/27/2022 Star Trek: The Next Generation 53323456891 Other Parts 53323456891
1/27/2022 Star Trek: The Next Generation 53323440191 Other Parts 53323440191
1/27/2022 Star Trek: The Next Generation 50223406821 Complete Game 50223406821
1/14/2022 Red & Ted's Road Show 51424102077 Complete Game 51424102077
1/14/2022 The Shadow 51432100323 Other Parts 51432100323
1/14/2022 Johnny Mnemonic 52242100750 Other Parts 52242100750
1/13/2022 Attack from Mars 53341103266 Other Parts 53341103266
1/9/2022 Oktoberfest OKF1035 Complete Game OKF1035
1/9/2022 Jurassic Park (Premium) 315081 Complete Game 315081
1/9/2022 Fish Tales 50005020647 Other Parts 50005020647
1/9/2022 Terminator 2: Judgment Day 50013770447 Complete Game 50013770447
1/8/2022 The Addams Family 20017060830 Complete Game 20017060830
12/28/2021 Space Station 552125241 Complete Game 552125241
12/27/2021 Batman (66 Premium) 326986 Complete Game 326986
12/27/2021 Supersonic ESU6621 Complete Game ESU6621
12/27/2021 Jungle Lord 495850 Complete Game 495850
12/27/2021 Viper 50215 Complete Game 50215
12/27/2021 Vector EVE1282 Other Parts EVE1282
12/27/2021 Flash Gordon EFG6571 Complete Game EFG6571
12/27/2021 Funhouse 50003I575030 Complete Game 50003I575030
12/27/2021 Flash Gordon EFG9828 Complete Game EFG9828
12/27/2021 El Dorado 06772 Complete Game 06772
12/27/2021 Lucky Hand 5583 Complete Game 5583
12/27/2021 Twilight Zone X970007 Complete Game X970007
12/27/2021 Junk Yard 50252101376 Other Parts 50252101376
12/27/2021 Monster Bash 50365402090 Other Parts 50365402090
12/26/2021 The Addams Family 20017I040424 Other Parts 20017I040424
12/26/2021 The Addams Family 20017I043216 Body Only 20017I043216
12/26/2021 Apollo 13 E127767 Complete Game E127767
12/26/2021 Revenge From Mars 59570102425 Other Parts 59570102425
12/26/2021 Revenge From Mars 50270100852 Body Only 50270100852
12/26/2021 NBA Fastbreak 52253100813 Complete Game 52253100813
12/26/2021 Funhouse 50003I576699 Complete Game 50003I576699
12/26/2021 Fish Tales 50005I196618 Complete Game 50005I196618
12/26/2021 Black Rose 20013I965935 Complete Game 20013I965935
12/15/2021 Star Wars Episode I 59569201022 Other Parts 59569201022
12/15/2021 Star Wars Episode I 59569200114 Other Parts 59569200114
12/15/2021 Hollywood Heat 5759 Complete Game 5759
12/15/2021 Chicago Cubs "Triple Play" 5279 Complete Game 5279
12/15/2021 Adventures of Rocky and Bullwinkle and Friends 78475 Complete Game 78475
12/15/2021 World Cup Soccer 51331105624 Complete Game 51331105624
12/15/2021 The Shadow 51432100554 Other Parts 51432100554